createdAt,value
2023-04-02T00:01:21.737Z,1.13
2023-04-02T00:04:38.215Z,1.20
2023-04-02T00:07:30.725Z,1.30
2023-04-02T00:09:59.502Z,1.30
2023-04-02T00:12:27.181Z,1.40
2023-04-02T00:14:58.429Z,1.37
2023-04-02T00:17:26.565Z,1.50
2023-04-02T00:19:59.976Z,1.30
2023-04-02T00:22:31.694Z,1.30
2023-04-02T00:25:02.899Z,2.00
2023-04-02T00:27:32.228Z,1.40
2023-04-02T00:30:00.625Z,1.50
2023-04-02T00:32:33.229Z,1.50
2023-04-02T00:35:03.433Z,1.60
2023-04-02T00:37:39.039Z,1.40
2023-04-02T00:40:17.527Z,1.63
2023-04-02T00:42:46.625Z,1.63
2023-04-02T00:45:24.151Z,1.60
2023-04-02T00:47:52.620Z,1.80
2023-04-02T00:50:28.984Z,1.90
2023-04-02T00:52:59.528Z,1.80
2023-04-02T00:55:34.177Z,1.80
2023-04-02T00:58:05.820Z,1.60
2023-04-02T01:00:36.019Z,1.60
2023-04-02T01:03:39.020Z,1.70
2023-04-02T01:06:12.785Z,1.50
2023-04-02T01:08:55.843Z,1.73
2023-04-02T01:11:39.405Z,1.70
2023-04-02T01:14:18.998Z,1.50
2023-04-02T01:16:54.427Z,1.70
2023-04-02T01:19:52.781Z,1.60
2023-04-02T01:22:30.746Z,1.70
2023-04-02T01:24:59.393Z,1.40
2023-04-02T01:27:30.825Z,1.50
2023-04-02T01:30:03.779Z,1.80
2023-04-02T01:32:32.207Z,1.40
2023-04-02T01:35:01.535Z,1.20
2023-04-02T01:37:38.821Z,1.30
2023-04-02T01:40:21.215Z,1.30
2023-04-02T01:42:56.438Z,1.40
2023-04-02T01:45:26.445Z,1.30
2023-04-02T01:47:54.309Z,2.00
2023-04-02T01:50:31.569Z,1.60
2023-04-02T01:53:02.918Z,2.30
2023-04-02T01:55:36.481Z,1.90
2023-04-02T01:58:05.820Z,2.30
2023-04-02T02:00:36.798Z,2.27
2023-04-02T02:03:08.802Z,2.40
2023-04-02T02:05:37.293Z,2.30
2023-04-02T02:08:07.971Z,2.40
2023-04-02T02:10:37.969Z,2.50
2023-04-02T02:13:05.785Z,2.30
2023-04-02T02:15:37.478Z,2.80
2023-04-02T02:18:07.751Z,2.90
2023-04-02T02:20:37.491Z,2.50
2023-04-02T02:23:06.288Z,2.60
2023-04-02T02:25:36.782Z,2.90
2023-04-02T02:28:08.955Z,2.97
2023-04-02T02:30:40.623Z,2.87
2023-04-02T02:33:16.498Z,3.10
2023-04-02T02:35:49.823Z,2.80
2023-04-02T02:38:30.072Z,3.13
2023-04-02T02:41:03.327Z,3.30
2023-04-02T02:44:19.404Z,3.37
2023-04-02T02:46:53.146Z,3.30
2023-04-02T02:49:25.631Z,3.10
2023-04-02T02:51:58.688Z,3.33
2023-04-02T02:54:28.517Z,3.10
2023-04-02T02:57:01.290Z,3.23
2023-04-02T02:59:31.865Z,3.30
2023-04-02T03:02:00.669Z,3.20
2023-04-02T03:04:30.870Z,3.10
2023-04-02T03:06:59.941Z,3.30
2023-04-02T03:09:36.279Z,3.43
2023-04-02T03:12:08.950Z,3.30
2023-04-02T03:14:46.266Z,3.20
2023-04-02T03:17:23.399Z,3.40
2023-04-02T03:19:56.099Z,3.27
2023-04-02T03:22:29.756Z,3.20
2023-04-02T03:25:02.362Z,3.67
2023-04-02T03:27:35.118Z,3.30
2023-04-02T03:30:20.986Z,3.13
2023-04-02T03:32:52.159Z,3.07
2023-04-02T03:35:24.846Z,2.90
2023-04-02T03:37:56.903Z,3.43
2023-04-02T03:40:29.563Z,3.07
2023-04-02T03:43:02.799Z,3.43
2023-04-02T03:45:37.310Z,3.50
2023-04-02T03:48:14.237Z,2.73
2023-04-02T03:50:45.999Z,3.10
2023-04-02T03:53:13.863Z,3.33
2023-04-02T03:55:42.705Z,3.03
2023-04-02T03:58:18.117Z,3.20
2023-04-02T04:00:53.571Z,3.10
2023-04-02T04:03:26.518Z,2.60
2023-04-02T04:05:58.850Z,2.93
2023-04-02T04:09:39.160Z,3.00
2023-04-02T04:12:23.233Z,2.90
2023-04-02T04:14:55.777Z,3.00
2023-04-02T04:17:29.911Z,2.70
2023-04-02T04:20:08.360Z,2.83
2023-04-02T04:22:36.587Z,3.57
2023-04-02T04:25:08.425Z,2.67
2023-04-02T04:27:43.004Z,2.73
2023-04-02T04:30:18.885Z,2.80
2023-04-02T04:32:50.542Z,2.70
2023-04-02T04:35:25.015Z,2.40
2023-04-02T04:37:59.591Z,2.53
2023-04-02T04:40:33.526Z,2.60
2023-04-02T04:43:04.240Z,2.57
2023-04-02T04:45:42.685Z,2.33
2023-04-02T04:48:19.763Z,2.67
2023-04-02T04:50:50.919Z,2.77
2023-04-02T04:53:23.035Z,2.13
2023-04-02T04:55:54.360Z,2.40
2023-04-02T04:58:25.273Z,2.20
2023-04-02T05:01:01.874Z,1.83
2023-04-02T05:03:35.455Z,1.90
2023-04-02T05:06:11.204Z,2.00
2023-04-02T05:08:43.581Z,2.03
2023-04-02T05:11:17.042Z,1.60
2023-04-02T05:13:52.564Z,2.67
2023-04-02T05:16:27.626Z,5.63
2023-04-02T05:19:01.241Z,3.90
2023-04-02T05:21:39.176Z,7.27
2023-04-02T05:24:36.754Z,7.53
2023-04-02T05:27:16.971Z,5.50
2023-04-02T05:29:50.378Z,6.10
2023-04-02T05:32:22.548Z,5.57
2023-04-02T05:34:55.336Z,3.70
2023-04-02T05:37:25.612Z,2.97
2023-04-02T05:39:56.016Z,2.33
2023-04-02T05:42:28.583Z,3.30
2023-04-02T05:45:09.065Z,3.10
2023-04-02T05:47:42.459Z,2.23
2023-04-02T05:50:30.434Z,2.20
2023-04-02T05:53:05.033Z,2.10
2023-04-02T05:55:42.947Z,2.20
2023-04-02T05:58:35.426Z,1.97
2023-04-02T06:01:13.146Z,1.70
2023-04-02T06:03:46.363Z,2.03
2023-04-02T06:06:20.636Z,2.30
2023-04-02T06:08:53.521Z,1.83
2023-04-02T06:11:25.149Z,1.50
2023-04-02T06:13:54.519Z,1.80
2023-04-02T06:16:27.376Z,1.83
2023-04-02T06:21:30.524Z,1.80
2023-04-02T06:24:02.595Z,1.63
2023-04-02T06:26:35.058Z,1.73
2023-04-02T06:29:08.104Z,1.67
2023-04-02T06:31:39.329Z,1.50
2023-04-02T06:34:12.925Z,2.17
2023-04-02T06:36:44.558Z,1.80
2023-04-02T06:39:18.341Z,1.67
2023-04-02T06:41:46.855Z,2.07
2023-04-02T06:44:18.452Z,2.10
2023-04-02T06:46:51.806Z,1.40
2023-04-02T06:49:24.802Z,1.60
2023-04-02T06:51:55.734Z,2.07
2023-04-02T06:54:23.593Z,1.80
2023-04-02T06:56:54.470Z,1.63
2023-04-02T06:59:22.437Z,1.50
2023-04-02T07:01:55.021Z,2.00
2023-04-02T07:04:23.401Z,1.40
2023-04-02T07:06:51.558Z,2.00
2023-04-02T07:09:20.864Z,1.57
2023-04-02T07:11:49.051Z,1.67
2023-04-02T07:14:17.529Z,1.60
2023-04-02T07:16:45.556Z,1.57
2023-04-02T07:19:20.040Z,1.27
2023-04-02T07:21:48.374Z,1.30
2023-04-02T07:24:16.716Z,1.40
2023-04-02T07:26:48.289Z,1.40
2023-04-02T07:29:18.480Z,1.67
2023-04-02T07:31:46.419Z,1.37
2023-04-02T07:34:14.955Z,1.40
2023-04-02T07:36:42.738Z,1.50
2023-04-02T07:39:10.627Z,1.13
2023-04-02T07:41:53.910Z,1.20
2023-04-02T07:44:22.572Z,1.23
2023-04-02T07:46:50.392Z,1.40
2023-04-02T07:49:18.261Z,1.40
2023-04-02T07:51:46.617Z,1.50
2023-04-02T07:54:14.542Z,1.40
2023-04-02T07:56:43.087Z,1.50
2023-04-02T07:59:12.476Z,1.60
2023-04-02T08:01:40.458Z,1.57
2023-04-02T08:04:17.016Z,1.50
2023-04-02T08:06:44.905Z,1.50
2023-04-02T08:09:13.223Z,1.47
2023-04-02T08:11:42.238Z,1.40
2023-04-02T08:14:10.105Z,1.60
2023-04-02T08:16:51.013Z,1.43
2023-04-02T08:19:19.239Z,1.30
2023-04-02T08:21:50.019Z,2.00
2023-04-02T08:24:19.138Z,2.50
2023-04-02T08:26:46.943Z,1.80
2023-04-02T08:29:16.508Z,2.00
2023-04-02T08:31:45.187Z,1.60
2023-04-02T08:34:16.054Z,1.40
2023-04-02T08:36:45.832Z,1.80
2023-04-02T08:39:13.826Z,1.60
2023-04-02T08:41:48.123Z,1.70
2023-04-02T08:44:38.673Z,1.30
2023-04-02T08:47:07.951Z,1.23
2023-04-02T08:49:44.455Z,1.30
2023-04-02T08:52:21.621Z,1.30
2023-04-02T08:54:53.582Z,1.50
2023-04-02T08:57:31.906Z,1.43
2023-04-02T09:00:08.246Z,1.50
2023-04-02T09:02:41.470Z,1.50
2023-04-02T09:05:19.935Z,1.30
2023-04-02T09:07:50.891Z,1.60
2023-04-02T09:10:19.720Z,1.23
2023-04-02T09:12:52.571Z,1.40
2023-04-02T09:15:29.369Z,1.40
2023-04-02T09:18:08.484Z,1.43
2023-04-02T09:20:38.116Z,1.50
2023-04-02T09:23:06.886Z,1.60
2023-04-02T09:25:34.922Z,1.40
2023-04-02T09:28:06.454Z,1.50
2023-04-02T09:30:48.313Z,1.47
2023-04-02T09:33:16.282Z,1.47
2023-04-02T09:35:58.328Z,1.60
2023-04-02T09:38:30.809Z,1.40
2023-04-02T09:41:01.659Z,1.30
2023-04-02T09:43:31.062Z,1.50
2023-04-02T09:46:02.467Z,1.47
2023-04-02T09:48:33.403Z,1.67
2023-04-02T09:51:13.379Z,1.80
2023-04-02T09:53:43.521Z,1.20
2023-04-02T09:56:20.193Z,1.60
2023-04-02T09:59:05.405Z,1.30
2023-04-02T10:01:35.552Z,1.20
2023-04-02T10:04:05.234Z,1.37
2023-04-02T10:06:35.524Z,1.20
2023-04-02T10:09:22.410Z,1.17
2023-04-02T10:11:51.652Z,1.40
2023-04-02T10:14:21.942Z,1.30
2023-04-02T10:16:52.349Z,1.13
2023-04-02T10:19:29.425Z,1.60
2023-04-02T10:22:01.558Z,1.43
2023-04-02T10:24:31.837Z,1.30
2023-04-02T10:27:10.461Z,1.30
2023-04-02T10:29:55.915Z,1.43
2023-04-02T10:32:29.388Z,1.17
2023-04-02T10:35:03.939Z,1.33
2023-04-02T10:37:50.299Z,1.20
2023-04-02T10:40:22.070Z,1.50
2023-04-02T10:42:57.082Z,2.57
2023-04-02T10:45:39.262Z,3.10
2023-04-02T10:48:16.519Z,1.53
2023-04-02T10:50:50.147Z,1.70
2023-04-02T10:53:21.686Z,1.20
2023-04-02T10:55:55.368Z,1.33
2023-04-02T10:58:26.717Z,1.40
2023-04-02T11:00:58.419Z,1.40
2023-04-02T11:03:34.929Z,1.60
2023-04-02T11:06:07.139Z,1.73
2023-04-02T11:08:43.105Z,2.10
2023-04-02T11:11:14.717Z,2.00
2023-04-02T11:13:51.889Z,1.90
2023-04-02T11:16:20.155Z,1.50
2023-04-02T11:19:26.735Z,1.50
2023-04-02T11:22:00.016Z,1.63
2023-04-02T11:24:39.528Z,1.70
2023-04-02T11:27:17.285Z,1.33
2023-04-02T11:29:48.045Z,1.40
2023-04-02T11:32:32.893Z,1.30
2023-04-02T11:35:27.183Z,1.60
2023-04-02T11:37:56.177Z,1.43
2023-04-02T11:40:56.530Z,1.30
2023-04-02T11:43:50.447Z,1.80
2023-04-02T11:46:41.154Z,1.20
2023-04-02T11:49:34.456Z,2.10
2023-04-02T11:52:11.290Z,1.70
2023-04-02T11:54:41.079Z,1.40
2023-04-02T11:57:25.278Z,1.20
2023-04-02T12:00:11.749Z,1.93
2023-04-02T12:02:50.840Z,1.30
2023-04-02T12:05:26.409Z,1.40
2023-04-02T12:08:13.090Z,1.67
2023-04-02T12:10:55.429Z,1.90
2023-04-02T12:13:52.422Z,1.20
2023-04-02T12:16:21.203Z,1.47
2023-04-02T12:18:54.094Z,1.37
2023-04-02T12:21:26.106Z,1.00
2023-04-02T12:23:57.307Z,1.40
2023-04-02T12:26:37.565Z,1.40
2023-04-02T12:29:25.030Z,1.57
2023-04-02T12:31:53.569Z,1.50
2023-04-02T12:34:23.226Z,1.40
2023-04-02T12:36:55.928Z,1.50
2023-04-02T12:39:27.359Z,1.20
2023-04-02T12:41:56.638Z,1.20
2023-04-02T12:44:27.956Z,1.33
2023-04-02T12:46:57.180Z,1.50
2023-04-02T12:51:07.339Z,1.20
2023-04-02T12:53:37.512Z,1.40
2023-04-02T12:56:08.300Z,1.20
2023-04-02T12:58:38.157Z,1.20
2023-04-02T13:01:15.807Z,1.47
2023-04-02T13:03:44.079Z,1.50
2023-04-02T13:06:32.306Z,1.50
2023-04-02T13:09:03.862Z,1.40
2023-04-02T13:11:36.124Z,1.30
2023-04-02T13:14:06.266Z,1.30
2023-04-02T13:16:37.417Z,1.57
2023-04-02T13:19:38.340Z,1.70
2023-04-02T13:22:32.513Z,1.70
2023-04-02T13:25:00.445Z,1.47
2023-04-02T13:27:28.346Z,1.30
2023-04-02T13:29:55.953Z,1.50
2023-04-02T13:32:24.928Z,1.43
2023-04-02T13:34:52.693Z,1.80
2023-04-02T13:37:20.523Z,1.30
2023-04-02T13:39:50.177Z,1.40
2023-04-02T13:42:19.077Z,1.67
2023-04-02T13:44:47.901Z,1.40
2023-04-02T13:47:16.609Z,1.30
2023-04-02T13:49:44.478Z,1.63
2023-04-02T13:52:16.818Z,1.33
2023-04-02T13:54:48.930Z,1.33
2023-04-02T13:57:18.603Z,1.20
2023-04-02T13:59:46.359Z,1.30
2023-04-02T14:02:18.492Z,1.47
2023-04-02T14:04:51.023Z,1.20
2023-04-02T14:07:30.133Z,1.47
2023-04-02T14:10:05.511Z,1.20
2023-04-02T14:12:54.033Z,1.20
2023-04-02T14:15:41.493Z,1.20
2023-04-02T14:18:23.930Z,1.30
2023-04-02T14:21:01.578Z,1.50
2023-04-02T14:23:53.873Z,1.33
2023-04-02T14:26:30.336Z,1.60
2023-04-02T14:29:07.451Z,1.33
2023-04-02T14:31:39.102Z,1.48
2023-04-02T14:34:13.667Z,1.50
2023-04-02T14:36:56.458Z,2.25
2023-04-02T14:39:33.237Z,3.70
2023-04-02T14:42:05.223Z,1.50
2023-04-02T14:44:44.788Z,1.30
2023-04-02T14:47:29.353Z,1.77
2023-04-02T14:50:04.081Z,1.20
2023-04-02T14:52:35.046Z,1.30
2023-04-02T14:55:07.496Z,1.40
2023-04-02T14:57:39.924Z,1.85
2023-04-02T15:00:27.831Z,1.60
2023-04-02T15:02:59.983Z,1.38
2023-04-02T15:05:34.828Z,2.40
2023-04-02T15:08:06.390Z,2.30
2023-04-02T15:10:36.631Z,1.90
2023-04-02T15:13:09.838Z,2.30
2023-04-02T15:15:43.610Z,3.40
2023-04-02T15:18:15.425Z,1.88
2023-04-02T15:20:53.636Z,2.13
2023-04-02T15:23:32.340Z,5.00
2023-04-02T15:26:08.747Z,1.77
2023-04-02T15:28:42.058Z,1.50
2023-04-02T15:31:15.899Z,5.25
2023-04-02T15:33:46.031Z,2.60
2023-04-02T15:36:29.628Z,2.60
2023-04-02T15:39:04.437Z,2.83
2023-04-02T15:41:38.357Z,3.10
2023-04-02T15:44:10.928Z,5.57
2023-04-02T15:46:51.384Z,3.23
2023-04-02T15:49:34.674Z,2.17
2023-04-02T15:52:07.970Z,2.80
2023-04-02T15:55:11.425Z,2.77
2023-04-02T15:57:54.632Z,2.47
2023-04-02T16:00:26.787Z,1.63
2023-04-02T16:03:25.165Z,1.52
2023-04-02T16:06:24.295Z,2.00
2023-04-02T16:09:16.111Z,1.60
2023-04-02T16:11:44.103Z,2.40
2023-04-02T16:14:28.145Z,2.53
2023-04-02T16:17:02.147Z,3.30
2023-04-02T16:19:35.516Z,3.38
2023-04-02T16:22:12.236Z,2.90
2023-04-02T16:24:40.015Z,2.72
2023-04-02T16:27:21.639Z,2.70
2023-04-02T16:29:59.920Z,3.13
2023-04-02T16:32:51.403Z,4.82
2023-04-02T16:35:42.295Z,6.50
2023-04-02T16:38:23.772Z,13.98
2023-04-02T16:41:07.511Z,1.60
2023-04-02T16:43:44.423Z,1.87
2023-04-02T16:46:31.822Z,1.67
2023-04-02T16:49:13.614Z,2.27
2023-04-02T16:51:46.812Z,1.57
2023-04-02T16:54:24.078Z,1.30
2023-04-02T16:57:06.977Z,1.10
2023-04-02T16:59:40.356Z,1.17
2023-04-02T17:02:27.798Z,1.40
2023-04-02T17:05:05.789Z,1.57
2023-04-02T17:07:43.976Z,1.70
2023-04-02T17:10:32.009Z,2.30
2023-04-02T17:13:13.107Z,1.73
2023-04-02T17:15:42.521Z,2.33
2023-04-02T17:18:19.837Z,4.80
2023-04-02T17:20:48.436Z,1.50
2023-04-02T17:23:19.464Z,1.50
2023-04-02T17:25:57.194Z,1.60
2023-04-02T17:28:29.496Z,1.03
2023-04-02T17:31:00.867Z,1.27
2023-04-02T17:33:28.728Z,1.10
2023-04-02T17:36:13.308Z,1.20
2023-04-02T17:38:52.157Z,1.17
2023-04-02T17:41:30.455Z,0.90
2023-04-02T17:44:03.898Z,1.10
2023-04-02T17:46:36.928Z,1.30
2023-04-02T17:49:13.284Z,0.93
2023-04-02T17:51:46.253Z,1.20
2023-04-02T17:54:30.097Z,1.23
2023-04-02T17:57:19.803Z,1.20
2023-04-02T17:59:56.764Z,1.10
2023-04-02T18:02:44.208Z,1.40
2023-04-02T18:05:21.549Z,1.20
2023-04-02T18:07:57.126Z,1.20
2023-04-02T18:10:32.362Z,1.20
2023-04-02T18:13:08.070Z,1.00
2023-04-02T18:15:44.244Z,1.17
2023-04-02T18:18:23.647Z,1.20
2023-04-02T18:21:01.739Z,1.50
2023-04-02T18:23:40.399Z,1.37
2023-04-02T18:26:15.600Z,1.40
2023-04-02T18:28:54.097Z,1.40
2023-04-02T18:31:31.839Z,1.60
2023-04-02T18:34:19.934Z,1.40
2023-04-02T18:36:57.285Z,1.40
2023-04-02T18:39:35.712Z,1.40
2023-04-02T18:42:09.050Z,1.30
2023-04-02T18:44:51.494Z,1.30
2023-04-02T18:47:25.008Z,1.37
2023-04-02T18:50:00.145Z,1.20
2023-04-02T18:52:28.459Z,1.30
2023-04-02T18:55:02.925Z,1.20
2023-04-02T18:57:36.107Z,1.60
2023-04-02T19:00:17.368Z,1.60
2023-04-02T19:02:50.153Z,1.40
2023-04-02T19:05:25.508Z,1.10
2023-04-02T19:07:58.924Z,1.20
2023-04-02T19:10:33.738Z,1.30
2023-04-02T19:13:01.873Z,1.23
2023-04-02T19:15:41.271Z,1.23
2023-04-02T19:18:17.503Z,1.07
2023-04-02T19:20:50.889Z,1.17
2023-04-02T19:23:37.035Z,1.37
2023-04-02T19:26:08.172Z,1.60
2023-04-02T19:28:47.690Z,1.00
2023-04-02T19:31:34.304Z,1.20
2023-04-02T19:34:13.927Z,1.00
2023-04-02T19:36:48.864Z,1.10
2023-04-02T19:39:42.697Z,1.57
2023-04-02T19:42:21.561Z,1.10
2023-04-02T19:44:53.681Z,1.00
2023-04-02T19:47:24.710Z,1.10
2023-04-02T19:49:56.460Z,1.13
2023-04-02T19:52:25.795Z,1.20
2023-04-02T19:54:55.729Z,1.27
2023-04-02T19:57:24.004Z,1.40
2023-04-02T19:59:53.244Z,1.63
2023-04-02T20:02:24.298Z,1.50
2023-04-02T20:04:54.670Z,1.13
2023-04-02T20:07:22.581Z,1.50
2023-04-02T20:09:50.851Z,1.23
2023-04-02T20:12:18.911Z,1.57
2023-04-02T20:14:49.590Z,1.20
2023-04-02T20:17:19.493Z,1.17
2023-04-02T20:19:48.796Z,1.20
2023-04-02T20:22:19.196Z,1.20
2023-04-02T20:24:51.273Z,1.20
2023-04-02T20:27:19.888Z,1.20
2023-04-02T20:29:48.337Z,1.20
2023-04-02T20:32:18.079Z,1.17
2023-04-02T20:34:50.176Z,1.30
2023-04-02T20:37:18.832Z,1.40
2023-04-02T20:39:47.993Z,1.40
2023-04-02T20:42:16.221Z,1.23
2023-04-02T20:44:43.923Z,1.50
2023-04-02T20:47:13.130Z,1.23
2023-04-02T20:49:41.870Z,1.40
2023-04-02T20:52:11.982Z,1.30
2023-04-02T20:54:40.954Z,1.30
2023-04-02T20:57:09.085Z,1.77
2023-04-02T20:59:37.501Z,1.60
2023-04-02T21:02:07.644Z,1.30
2023-04-02T21:04:36.122Z,1.20
2023-04-02T21:07:04.565Z,1.20
2023-04-02T21:09:34.301Z,1.20
2023-04-02T21:12:03.412Z,1.40
2023-04-02T21:14:37.653Z,1.60
2023-04-02T21:17:08.815Z,1.37
2023-04-02T21:19:37.468Z,1.70
2023-04-02T21:22:06.101Z,1.60
2023-04-02T21:24:36.285Z,2.33
2023-04-02T21:27:06.175Z,1.47
2023-04-02T21:29:34.102Z,1.17
2023-04-02T21:32:11.119Z,1.40
2023-04-02T21:34:47.291Z,1.37
2023-04-02T21:37:14.969Z,1.30
2023-04-02T21:39:44.988Z,1.30
2023-04-02T21:42:13.847Z,1.43
2023-04-02T21:44:41.552Z,1.03
2023-04-02T21:47:09.918Z,1.40
2023-04-02T21:49:37.753Z,1.33
2023-04-02T21:54:11.150Z,1.27
2023-04-02T21:56:41.327Z,1.20
2023-04-02T21:59:11.465Z,1.20
2023-04-02T22:01:41.807Z,1.27
2023-04-02T22:04:11.386Z,1.40
2023-04-02T22:06:41.386Z,1.40
2023-04-02T22:09:14.198Z,1.60
2023-04-02T22:11:44.425Z,1.30
2023-04-02T22:16:45.803Z,1.17
2023-04-02T22:19:16.676Z,1.43
2023-04-02T22:21:45.851Z,1.17
2023-04-02T22:24:15.644Z,1.40
2023-04-02T22:26:44.683Z,1.50
2023-04-02T22:29:13.203Z,1.23
2023-04-02T22:31:41.908Z,1.30
2023-04-02T22:34:11.540Z,1.20
2023-04-02T22:36:39.154Z,1.40
2023-04-02T22:39:10.418Z,1.23
2023-04-02T22:41:38.553Z,1.27
2023-04-02T22:44:06.842Z,1.60
2023-04-02T22:46:35.409Z,1.30
2023-04-02T22:49:04.486Z,1.60
2023-04-02T22:51:33.622Z,1.20
2023-04-02T22:54:01.696Z,1.20
2023-04-02T22:56:32.869Z,1.20
2023-04-02T22:59:01.901Z,1.30
2023-04-02T23:01:31.676Z,1.10
2023-04-02T23:04:00.030Z,1.03
2023-04-02T23:06:29.623Z,1.47
2023-04-02T23:08:59.058Z,1.30
2023-04-02T23:11:28.787Z,1.53
2023-04-02T23:13:58.283Z,1.63
2023-04-02T23:16:27.471Z,1.37
2023-04-02T23:18:57.076Z,1.37
2023-04-02T23:21:27.088Z,1.40
2023-04-02T23:23:55.142Z,1.50
2023-04-02T23:26:29.350Z,1.37
2023-04-02T23:28:58.396Z,1.40
2023-04-02T23:31:26.796Z,1.30
2023-04-02T23:33:54.915Z,1.30
2023-04-02T23:36:25.036Z,1.40
2023-04-02T23:38:55.498Z,1.20
2023-04-02T23:41:27.023Z,1.40
2023-04-02T23:43:55.927Z,1.30
2023-04-02T23:46:24.604Z,1.30
2023-04-02T23:48:52.870Z,1.13
2023-04-02T23:51:20.886Z,1.63
2023-04-02T23:53:49.173Z,1.40
2023-04-02T23:56:17.133Z,1.40
2023-04-02T23:58:46.728Z,1.50
